Time;durP1;ratioP1;P1;durP2;ratioP2;P2;SDS_P1;SDS_P2;PMS_P1;PMS_P2;Temp;Humidity;BMP_temperature;BMP_pressure;BME280_temperature;BME280_humidity;BME280_pressure;Samples;Min_cycle;Max_cycle;Signal;HPM_P1;HPM_P2
2022/07/23 00:01:47;;;;;;;11.80;10.80;;;23.30;99.90;;;;;;5071372;28;20590;-69
2022/07/23 00:04:13;;;;;;;11.27;10.47;;;23.30;99.90;;;;;;5072641;28;20649;-69
2022/07/23 00:06:40;;;;;;;10.83;9.83;;;23.10;99.90;;;;;;5072567;28;20634;-69
2022/07/23 00:09:06;;;;;;;11.47;10.47;;;23.10;99.90;;;;;;5072604;28;20570;-69
2022/07/23 00:11:33;;;;;;;11.07;9.77;;;23.00;99.90;;;;;;5072455;28;20652;-69
2022/07/23 00:13:59;;;;;;;11.33;10.43;;;23.00;99.90;;;;;;5072284;28;21162;-69
2022/07/23 00:16:25;;;;;;;10.73;9.73;;;22.90;99.90;;;;;;5072518;28;21165;-69
2022/07/23 00:18:52;;;;;;;10.63;9.83;;;23.00;99.90;;;;;;5070959;28;20617;-69
2022/07/23 00:21:18;;;;;;;12.03;10.63;;;23.00;99.90;;;;;;5075112;28;20639;-69
2022/07/23 00:23:45;;;;;;;11.53;10.53;;;23.10;99.90;;;;;;5075942;28;21226;-69
2022/07/23 00:26:11;;;;;;;11.23;10.23;;;23.10;99.90;;;;;;5076165;28;20667;-69
2022/07/23 00:28:38;;;;;;;11.40;10.50;;;23.20;99.90;;;;;;5075972;28;20578;-69
2022/07/23 00:31:04;;;;;;;11.40;10.30;;;23.40;99.90;;;;;;5076122;28;20574;-69
2022/07/23 00:33:31;;;;;;;11.13;10.20;;;23.40;99.90;;;;;;5075729;28;20567;-69
2022/07/23 00:35:57;;;;;;;10.40;9.47;;;23.40;99.90;;;;;;5075509;28;20625;-69
2022/07/23 00:38:23;;;;;;;10.30;9.60;;;23.50;99.90;;;;;;5075970;28;20627;-69
2022/07/23 00:40:50;;;;;;;10.13;9.43;;;23.50;99.90;;;;;;5075908;28;20578;-69
2022/07/23 00:43:16;;;;;;;10.47;9.50;;;23.50;99.90;;;;;;5075962;28;20574;-69
2022/07/23 00:45:43;;;;;;;10.97;9.97;;;23.40;99.90;;;;;;5075843;28;20582;-69
2022/07/23 00:48:09;;;;;;;10.60;9.73;;;23.50;99.90;;;;;;5075647;28;20749;-69
2022/07/23 00:50:35;;;;;;;10.80;9.93;;;23.40;99.90;;;;;;5075440;28;20644;-69
2022/07/23 00:53:02;;;;;;;10.27;9.47;;;23.40;99.90;;;;;;5075745;28;20635;-69
2022/07/23 00:55:28;;;;;;;11.67;10.67;;;23.40;99.90;;;;;;5075542;28;21170;-69
2022/07/23 00:57:55;;;;;;;11.73;10.77;;;23.30;99.90;;;;;;5075267;28;20589;-69
2022/07/23 01:00:22;;;;;;;11.83;10.80;;;23.10;99.90;;;;;;5075319;28;21178;-69
2022/07/23 01:02:48;;;;;;;11.87;9.93;;;23.10;99.90;;;;;;5075546;28;20582;-69
2022/07/23 01:05:17;;;;;;;11.87;10.97;;;23.10;99.90;;;;;;5075109;28;20646;-69
2022/07/23 01:07:45;;;;;;;14.13;10.83;;;23.10;99.90;;;;;;5075462;28;20669;-69
2022/07/23 01:12:57;;;;;;;10.40;9.60;;;22.90;99.90;;;;;;5075136;28;20582;-70
2022/07/23 01:15:23;;;;;;;10.80;9.90;;;22.90;99.90;;;;;;5075251;28;20618;-70
2022/07/23 01:17:50;;;;;;;11.17;10.17;;;22.80;99.90;;;;;;5074963;28;20647;-70
2022/07/23 01:20:17;;;;;;;11.57;10.53;;;22.80;99.90;;;;;;5075060;28;20614;-70
2022/07/23 01:22:45;;;;;;;12.20;11.27;;;22.70;99.90;;;;;;5075042;28;20551;-70
2022/07/23 01:25:11;;;;;;;12.07;11.10;;;22.50;99.90;;;;;;5074706;28;20626;-70
2022/07/23 01:27:38;;;;;;;16.33;11.50;;;22.50;99.90;;;;;;5075046;28;20634;-70
2022/07/23 01:30:05;;;;;;;11.10;10.27;;;22.50;99.90;;;;;;5074758;28;21127;-70
2022/07/23 01:32:31;;;;;;;11.73;10.73;;;22.40;99.90;;;;;;5074518;28;20671;-70
2022/07/23 01:34:58;;;;;;;10.77;9.87;;;22.40;99.90;;;;;;5074990;28;20574;-70
2022/07/23 01:37:24;;;;;;;12.83;11.23;;;22.50;99.90;;;;;;5074721;28;20578;-70
2022/07/23 01:39:51;;;;;;;11.77;10.77;;;22.50;99.90;;;;;;5074839;28;20582;-70
2022/07/23 01:42:17;;;;;;;11.73;10.73;;;22.50;99.90;;;;;;5074537;28;20587;-70
2022/07/23 01:44:44;;;;;;;12.23;10.80;;;22.30;99.90;;;;;;5074489;28;20593;-70
2022/07/23 01:47:10;;;;;;;12.63;11.33;;;22.30;99.90;;;;;;5074346;28;21216;-70
2022/07/23 01:49:36;;;;;;;12.40;11.50;;;22.30;99.90;;;;;;5073535;28;20575;-70
2022/07/23 01:52:06;;;;;;;10.80;10.00;;;22.20;99.90;;;;;;5074383;28;20590;-70
2022/07/23 01:54:33;;;;;;;11.47;10.57;;;22.10;99.90;;;;;;5073256;28;20622;-69
2022/07/23 01:57:00;;;;;;;11.73;10.60;;;21.90;99.90;;;;;;5074670;28;21238;-70
2022/07/23 01:59:27;;;;;;;11.73;10.83;;;21.90;99.90;;;;;;5074567;28;20598;-70
2022/07/23 02:01:54;;;;;;;13.87;10.70;;;21.90;99.90;;;;;;5074363;28;20609;-70
2022/07/23 02:04:22;;;;;;;11.60;10.80;;;21.60;99.90;;;;;;5074088;28;20692;-70
2022/07/23 02:06:49;;;;;;;12.13;11.10;;;21.40;99.90;;;;;;5074279;28;20932;-70
2022/07/23 02:09:15;;;;;;;11.97;10.97;;;21.40;99.90;;;;;;5073928;28;21125;-70
2022/07/23 02:11:42;;;;;;;15.20;12.10;;;21.50;99.90;;;;;;5073858;28;20575;-70
2022/07/23 02:14:08;;;;;;;11.70;10.80;;;21.40;99.90;;;;;;5074068;28;20615;-70
2022/07/23 02:16:35;;;;;;;11.87;10.97;;;21.40;99.90;;;;;;5073869;28;20590;-70
2022/07/23 02:19:03;;;;;;;13.83;12.10;;;21.40;99.90;;;;;;5073696;28;20578;-70
2022/07/23 02:21:29;;;;;;;15.90;11.30;;;21.40;99.90;;;;;;5073956;28;20583;-70
2022/07/23 02:23:57;;;;;;;12.70;11.47;;;21.40;99.90;;;;;;5073832;28;20637;-70
2022/07/23 02:26:23;;;;;;;11.77;10.80;;;21.30;99.90;;;;;;5073602;28;20923;-70
2022/07/23 02:28:49;;;;;;;14.87;11.93;;;21.40;99.90;;;;;;5073703;28;20703;-70
2022/07/23 02:31:16;;;;;;;11.93;11.00;;;21.40;99.90;;;;;;5073624;28;20559;-69
2022/07/23 02:33:42;;;;;;;11.80;10.90;;;21.30;99.90;;;;;;5073409;28;20578;-70
2022/07/23 02:36:09;;;;;;;12.80;11.43;;;21.40;99.90;;;;;;5073334;28;21108;-70
2022/07/23 02:38:35;;;;;;;13.53;12.40;;;21.40;99.90;;;;;;5072715;28;20582;-70
2022/07/23 02:41:02;;;;;;;12.50;11.40;;;21.40;99.90;;;;;;5073716;28;20640;-69
2022/07/23 02:43:28;;;;;;;12.40;11.40;;;21.40;99.90;;;;;;5072908;28;21038;-70
2022/07/23 02:45:54;;;;;;;12.60;11.40;;;21.50;99.90;;;;;;5071945;28;20927;-70
2022/07/23 02:48:21;;;;;;;13.23;11.77;;;21.40;99.90;;;;;;5073187;28;20638;-70
2022/07/23 02:50:47;;;;;;;12.60;11.50;;;21.40;99.90;;;;;;5072303;28;20583;-70
2022/07/23 02:53:14;;;;;;;13.30;12.10;;;21.40;99.90;;;;;;5072188;28;20672;-69
2022/07/23 02:55:40;;;;;;;12.37;11.27;;;21.40;99.90;;;;;;5073188;28;20575;-70
2022/07/23 02:58:06;;;;;;;13.43;12.17;;;21.40;99.90;;;;;;5073401;28;20614;-70
2022/07/23 03:00:33;;;;;;;11.90;10.83;;;21.30;99.90;;;;;;5073140;28;21047;-70
2022/07/23 03:02:59;;;;;;;12.17;11.03;;;21.30;99.90;;;;;;5073244;28;20647;-70
2022/07/23 03:05:26;;;;;;;11.93;10.83;;;21.40;99.90;;;;;;5072786;28;21283;-70
2022/07/23 03:07:52;;;;;;;12.37;11.37;;;21.50;99.90;;;;;;5073018;28;20638;-70
2022/07/23 03:10:19;;;;;;;12.20;11.13;;;21.60;99.90;;;;;;5071980;28;21006;-70
2022/07/23 03:12:45;;;;;;;11.80;10.93;;;21.60;99.90;;;;;;5073172;28;21015;-70
2022/07/23 03:15:11;;;;;;;12.27;11.27;;;21.60;99.90;;;;;;5073212;28;20585;-70
2022/07/23 03:17:38;;;;;;;11.70;10.70;;;21.50;99.90;;;;;;5072830;28;20578;-70
2022/07/23 03:20:05;;;;;;;12.73;11.43;;;21.50;99.90;;;;;;5071970;28;20583;-70
2022/07/23 03:22:31;;;;;;;12.43;11.33;;;21.50;99.90;;;;;;5072816;28;21198;-70
2022/07/23 03:24:57;;;;;;;13.07;11.97;;;21.50;99.90;;;;;;5072958;28;20626;-70
2022/07/23 03:27:26;;;;;;;12.40;11.30;;;21.60;99.90;;;;;;5071370;28;20658;-70
2022/07/23 03:29:54;;;;;;;12.20;11.20;;;21.60;99.90;;;;;;5073120;28;20566;-70
2022/07/23 03:32:21;;;;;;;13.73;12.50;;;21.60;99.90;;;;;;5072658;28;20593;-70
2022/07/23 03:34:48;;;;;;;13.27;12.10;;;21.50;99.90;;;;;;5071432;28;20606;-70
2022/07/23 03:37:16;;;;;;;11.93;11.03;;;21.40;99.90;;;;;;5072654;28;21022;-70
2022/07/23 03:39:43;;;;;;;12.73;11.50;;;21.50;99.90;;;;;;5072976;28;20586;-70
2022/07/23 03:42:10;;;;;;;13.10;11.80;;;21.30;99.90;;;;;;5072833;28;21021;-70
2022/07/23 03:44:37;;;;;;;13.47;12.47;;;21.20;99.90;;;;;;5072772;28;20948;-70
2022/07/23 03:47:05;;;;;;;14.17;12.90;;;21.00;99.90;;;;;;5071542;28;20634;-70
2022/07/23 03:49:32;;;;;;;12.20;11.20;;;21.00;99.90;;;;;;5072498;28;20611;-70
2022/07/23 03:51:59;;;;;;;13.07;12.07;;;20.90;99.90;;;;;;5072603;28;21232;-70
2022/07/23 03:54:26;;;;;;;13.67;12.60;;;20.90;99.90;;;;;;5072718;28;20621;-70
2022/07/23 03:56:52;;;;;;;12.53;11.47;;;20.90;99.90;;;;;;5076530;28;20570;-70
2022/07/23 03:59:19;;;;;;;12.70;11.50;;;21.00;99.90;;;;;;5076502;28;20574;-70
2022/07/23 04:01:45;;;;;;;11.90;10.90;;;21.10;99.90;;;;;;5076659;28;20667;-70
2022/07/23 04:04:12;;;;;;;13.03;12.03;;;21.20;99.90;;;;;;5076377;28;20646;-70
2022/07/23 04:06:38;;;;;;;13.53;12.23;;;21.10;99.90;;;;;;5076502;28;20693;-70
2022/07/23 04:09:04;;;;;;;12.87;11.77;;;21.30;99.90;;;;;;5076088;28;20641;-70
2022/07/23 04:11:31;;;;;;;12.47;11.23;;;21.20;99.90;;;;;;5076195;28;21185;-70
2022/07/23 04:13:57;;;;;;;12.07;10.87;;;21.20;99.90;;;;;;5076452;28;20586;-70
2022/07/23 04:16:24;;;;;;;12.87;11.77;;;21.20;99.90;;;;;;5076376;28;20570;-70
2022/07/23 04:18:50;;;;;;;14.50;12.47;;;21.30;99.90;;;;;;5076041;28;20614;-70
2022/07/23 04:21:16;;;;;;;12.40;11.40;;;21.30;99.90;;;;;;5076313;28;20749;-70
2022/07/23 04:23:43;;;;;;;13.03;11.37;;;21.30;99.90;;;;;;5076194;28;20635;-70
2022/07/23 04:26:09;;;;;;;12.83;11.70;;;21.30;99.90;;;;;;5076139;28;20985;-70
2022/07/23 04:28:35;;;;;;;12.17;11.17;;;21.30;99.90;;;;;;5076024;28;20641;-70
2022/07/23 04:31:02;;;;;;;12.17;10.93;;;21.30;99.90;;;;;;5076096;28;20666;-70
2022/07/23 04:33:28;;;;;;;13.03;12.13;;;21.30;99.90;;;;;;5076035;28;20581;-70
2022/07/23 04:35:55;;;;;;;12.10;11.10;;;21.20;99.90;;;;;;5075761;28;20571;-70
2022/07/23 04:38:21;;;;;;;13.27;11.90;;;21.20;99.90;;;;;;5076007;28;20662;-70
2022/07/23 04:40:47;;;;;;;13.40;12.30;;;21.30;99.90;;;;;;5075680;28;20644;-70
2022/07/23 04:43:14;;;;;;;12.80;11.53;;;21.40;99.90;;;;;;5075984;28;20977;-69
2022/07/23 04:45:41;;;;;;;13.70;12.50;;;21.40;99.90;;;;;;5075918;28;20581;-70
2022/07/23 04:48:07;;;;;;;13.40;11.93;;;21.30;99.90;;;;;;5075705;28;20654;-70
2022/07/23 04:50:33;;;;;;;12.67;11.53;;;21.30;99.90;;;;;;5075468;28;20623;-70
2022/07/23 04:53:00;;;;;;;13.50;12.17;;;21.30;99.90;;;;;;5075731;28;20578;-70
2022/07/23 04:55:26;;;;;;;11.90;10.80;;;21.40;99.90;;;;;;5075484;28;20614;-70
2022/07/23 04:57:53;;;;;;;13.20;12.10;;;21.30;99.90;;;;;;5075720;28;20948;-70
2022/07/23 05:00:19;;;;;;;13.07;11.93;;;21.40;99.90;;;;;;5075622;28;20602;-70
2022/07/23 05:02:45;;;;;;;12.23;11.27;;;21.30;99.90;;;;;;5075290;28;20606;-69
2022/07/23 05:05:12;;;;;;;12.70;11.63;;;21.30;99.90;;;;;;5075013;28;21288;-70
2022/07/23 05:07:39;;;;;;;12.73;11.60;;;21.30;99.90;;;;;;5074427;28;20944;-69
2022/07/23 05:10:05;;;;;;;13.50;12.27;;;21.40;99.90;;;;;;5075492;28;20975;-70
2022/07/23 05:12:32;;;;;;;13.07;12.03;;;21.40;99.90;;;;;;5075232;28;20659;-70
2022/07/23 05:14:59;;;;;;;13.80;12.70;;;21.30;99.90;;;;;;5075383;28;20571;-70
2022/07/23 05:17:25;;;;;;;13.17;12.17;;;21.40;99.90;;;;;;5075562;28;21140;-70
2022/07/23 05:19:52;;;;;;;13.30;12.10;;;21.30;99.90;;;;;;5075455;28;20660;-70
2022/07/23 05:22:18;;;;;;;13.30;12.10;;;21.30;99.90;;;;;;5073902;28;20637;-70
2022/07/23 05:24:44;;;;;;;14.23;13.10;;;21.20;99.90;;;;;;5074750;28;20642;-70
2022/07/23 05:27:11;;;;;;;16.23;14.87;;;21.20;99.90;;;;;;5074966;28;20607;-69
2022/07/23 05:29:37;;;;;;;14.40;13.03;;;21.20;99.90;;;;;;5073428;28;20722;-70
2022/07/23 05:32:04;;;;;;;13.53;12.33;;;21.20;99.90;;;;;;5074893;28;21164;-69
2022/07/23 05:34:30;;;;;;;14.37;13.07;;;21.30;99.90;;;;;;5074963;28;20629;-70
2022/07/23 05:36:57;;;;;;;13.03;11.83;;;21.30;99.90;;;;;;5074870;28;20570;-70
2022/07/23 05:39:23;;;;;;;15.33;12.40;;;21.40;99.90;;;;;;5075052;28;20705;-69
2022/07/23 05:41:50;;;;;;;14.60;13.20;;;21.40;99.90;;;;;;5074849;28;20618;-70
2022/07/23 05:44:16;;;;;;;12.53;11.57;;;21.40;99.90;;;;;;5074855;28;20643;-70
2022/07/23 05:46:42;;;;;;;13.10;12.03;;;21.40;99.90;;;;;;5074504;28;20695;-70
2022/07/23 05:49:09;;;;;;;12.87;11.80;;;21.40;99.90;;;;;;5074688;28;21026;-70
2022/07/23 05:51:35;;;;;;;15.20;13.63;;;21.50;99.90;;;;;;5074501;28;20628;-70
2022/07/23 05:54:02;;;;;;;14.87;13.57;;;21.50;99.90;;;;;;5074555;28;21026;-70
2022/07/23 05:56:28;;;;;;;14.97;13.47;;;21.20;99.90;;;;;;5074174;28;20644;-69
2022/07/23 05:58:55;;;;;;;16.57;14.80;;;20.80;99.90;;;;;;5074203;28;20583;-69
2022/07/23 06:01:21;;;;;;;15.20;13.70;;;20.60;99.90;;;;;;5074163;28;21000;-70
2022/07/23 06:03:47;;;;;;;15.70;14.23;;;20.50;99.90;;;;;;5074367;28;20626;-69
2022/07/23 06:06:14;;;;;;;13.73;12.70;;;20.60;99.90;;;;;;5074017;28;20642;-69
2022/07/23 06:08:40;;;;;;;14.80;13.60;;;20.70;99.90;;;;;;5073730;28;21235;-69
2022/07/23 06:11:07;;;;;;;14.77;13.37;;;20.70;99.90;;;;;;5073977;28;20579;-69
2022/07/23 06:13:33;;;;;;;21.67;19.77;;;20.70;99.90;;;;;;5074159;28;20969;-69
2022/07/23 06:16:00;;;;;;;14.53;13.27;;;20.90;99.90;;;;;;5073911;28;20570;-69
2022/07/23 06:18:26;;;;;;;15.50;14.00;;;21.00;99.90;;;;;;5074034;28;21130;-69
2022/07/23 06:20:52;;;;;;;14.67;13.47;;;21.20;99.90;;;;;;5073974;28;20636;-69
2022/07/23 06:23:19;;;;;;;15.17;13.73;;;21.30;99.90;;;;;;5072478;28;20634;-69
2022/07/23 06:25:45;;;;;;;17.53;15.80;;;21.30;99.90;;;;;;5073647;28;20578;-69
2022/07/23 06:28:12;;;;;;;14.73;13.33;;;21.30;99.90;;;;;;5073781;28;20730;-69
2022/07/23 06:30:38;;;;;;;15.77;14.47;;;21.50;99.90;;;;;;5072378;28;20615;-69
2022/07/23 06:33:05;;;;;;;17.07;15.40;;;21.70;99.90;;;;;;5073705;28;20629;-69
2022/07/23 06:35:33;;;;;;;16.00;14.77;;;21.80;99.90;;;;;;5073853;28;20619;-69
2022/07/23 06:38:00;;;;;;;15.50;14.20;;;21.80;99.90;;;;;;5073480;28;20626;-69
2022/07/23 06:40:26;;;;;;;15.73;14.23;;;21.70;99.90;;;;;;5073247;28;20595;-69
2022/07/23 06:42:52;;;;;;;14.77;13.60;;;21.60;99.90;;;;;;5073118;28;21048;-69
2022/07/23 06:45:19;;;;;;;15.13;13.83;;;21.50;99.90;;;;;;5073618;28;20606;-69
2022/07/23 06:47:45;;;;;;;14.50;13.40;;;21.50;99.90;;;;;;5071911;28;20699;-69
2022/07/23 06:50:12;;;;;;;15.07;13.87;;;21.70;99.90;;;;;;5073631;28;20604;-69
2022/07/23 06:52:38;;;;;;;16.17;14.83;;;21.80;99.90;;;;;;5073637;28;20983;-69
2022/07/23 06:55:05;;;;;;;14.93;13.53;;;21.70;99.90;;;;;;5073509;28;20636;-69
2022/07/23 06:57:32;;;;;;;14.90;13.50;;;21.90;99.90;;;;;;5073025;28;21124;-69
2022/07/23 06:59:58;;;;;;;15.40;13.77;;;22.10;99.90;;;;;;5073246;28;20617;-69
2022/07/23 07:02:24;;;;;;;14.97;13.57;;;22.10;99.90;;;;;;5073268;28;20614;-69
2022/07/23 07:04:51;;;;;;;14.77;13.57;;;22.10;99.90;;;;;;5072833;28;20695;-69
2022/07/23 07:07:17;;;;;;;15.17;13.87;;;22.20;99.90;;;;;;5073282;28;20571;-69
2022/07/23 07:09:44;;;;;;;15.13;12.33;;;22.50;99.90;;;;;;5073313;28;20638;-69
2022/07/23 07:12:11;;;;;;;15.00;13.63;;;22.70;99.90;;;;;;5073260;28;20606;-69
2022/07/23 07:14:38;;;;;;;13.97;12.60;;;22.60;99.90;;;;;;5072909;28;20575;-69
2022/07/23 07:17:04;;;;;;;13.87;12.57;;;22.80;99.90;;;;;;5073377;28;21190;-69
2022/07/23 07:19:31;;;;;;;13.73;12.43;;;22.40;99.90;;;;;;5073192;28;20610;-69
2022/07/23 07:21:57;;;;;;;13.87;12.70;;;22.70;99.90;;;;;;5073364;28;20946;-69
2022/07/23 07:24:24;;;;;;;19.10;12.20;;;22.70;99.90;;;;;;5071811;28;20994;-69
2022/07/23 07:26:50;;;;;;;11.90;10.70;;;23.00;99.90;;;;;;5073441;28;20622;-69
2022/07/23 07:29:17;;;;;;;12.30;11.20;;;23.00;99.90;;;;;;5072444;28;21296;-69
2022/07/23 07:31:43;;;;;;;13.33;12.13;;;23.00;99.90;;;;;;5072188;28;20622;-69
2022/07/23 07:34:10;;;;;;;13.07;11.73;;;23.50;99.90;;;;;;5072603;28;20950;-69
2022/07/23 07:36:37;;;;;;;12.20;11.10;;;23.60;99.90;;;;;;5072881;28;20597;-69
2022/07/23 07:39:04;;;;;;;16.90;12.00;;;23.80;99.90;;;;;;5072371;28;20683;-69
2022/07/23 07:41:31;;;;;;;13.87;12.73;;;23.90;99.90;;;;;;5072689;28;20637;-69
2022/07/23 07:43:58;;;;;;;13.37;12.13;;;23.70;99.90;;;;;;5071125;28;20664;-69
2022/07/23 07:46:27;;;;;;;13.13;11.87;;;23.60;99.90;;;;;;5072768;28;20680;-69
2022/07/23 07:48:53;;;;;;;12.23;11.23;;;23.70;99.90;;;;;;5072510;28;20696;-69
2022/07/23 07:51:20;;;;;;;12.40;11.10;;;24.00;99.90;;;;;;5072767;28;20575;-69
2022/07/23 07:53:46;;;;;;;12.37;11.07;;;24.30;99.90;;;;;;5072535;28;20612;-69
2022/07/23 07:56:13;;;;;;;16.00;12.00;;;23.90;99.90;;;;;;5074288;28;20932;-71
2022/07/23 07:58:39;;;;;;;11.90;10.67;;;23.70;99.90;;;;;;5072854;28;20618;-71
2022/07/23 08:01:06;;;;;;;14.07;12.70;;;24.00;99.90;;;;;;5072593;28;20585;-71
2022/07/23 08:03:33;;;;;;;14.43;13.13;;;24.40;99.90;;;;;;5072547;28;20582;-71
2022/07/23 08:05:59;;;;;;;13.37;11.97;;;24.50;99.90;;;;;;5072287;28;20658;-70
2022/07/23 08:08:25;;;;;;;13.10;12.20;;;24.80;99.90;;;;;;5072073;28;20723;-71
2022/07/23 08:10:52;;;;;;;18.33;14.63;;;24.90;99.90;;;;;;5072208;28;20910;-70
2022/07/23 08:13:18;;;;;;;16.47;13.73;;;24.90;99.90;;;;;;5072168;28;20594;-71
2022/07/23 08:15:45;;;;;;;14.93;13.43;;;24.60;99.90;;;;;;5072065;28;20594;-70
2022/07/23 08:18:11;;;;;;;15.67;14.27;;;24.50;99.90;;;;;;5072749;28;20615;-70
2022/07/23 08:20:39;;;;;;;15.40;13.90;;;24.80;99.90;;;;;;5072504;28;20574;-71
2022/07/23 08:23:07;;;;;;;16.30;14.17;;;25.10;99.90;;;;;;5072514;28;20586;-72
2022/07/23 08:25:41;;;;;;;17.50;13.27;;;25.00;99.90;;;;;;5072121;28;20630;-71
2022/07/23 08:28:09;;;;;;;14.77;13.27;;;25.20;99.90;;;;;;5072315;28;20598;-71
2022/07/23 08:30:37;;;;;;;15.30;13.90;;;25.50;99.90;;;;;;5072205;28;20590;-71
2022/07/23 08:33:07;;;;;;;16.47;14.87;;;25.40;99.90;;;;;;5072366;28;20610;-71
2022/07/23 08:35:36;;;;;;;15.67;13.73;;;25.00;99.90;;;;;;5072124;28;20626;-72
2022/07/23 08:38:05;;;;;;;16.90;15.13;;;25.50;99.90;;;;;;5072152;28;20579;-71
2022/07/23 08:40:34;;;;;;;15.83;14.50;;;25.40;99.90;;;;;;5072260;28;20586;-72
2022/07/23 08:43:08;;;;;;;14.17;12.97;;;25.50;99.90;;;;;;5074572;28;20579;-72
2022/07/23 08:45:41;;;;;;;15.57;13.83;;;25.40;99.90;;;;;;5076126;28;20589;-72
2022/07/23 08:48:08;;;;;;;16.13;14.63;;;25.80;99.90;;;;;;5075771;28;20624;-72
2022/07/23 08:50:41;;;;;;;14.70;13.50;;;25.90;99.90;;;;;;5075876;28;20684;-72
2022/07/23 08:53:07;;;;;;;24.90;14.70;;;25.50;99.90;;;;;;5075529;28;20586;-72
2022/07/23 08:55:34;;;;;;;15.73;14.30;;;25.20;99.90;;;;;;5075498;28;20586;-72
2022/07/23 08:58:01;;;;;;;18.00;14.63;;;25.00;99.90;;;;;;5076006;28;20618;-71
2022/07/23 09:00:29;;;;;;;14.70;13.50;;;25.30;99.90;;;;;;5075911;28;20602;-72
2022/07/23 09:02:55;;;;;;;15.70;14.30;;;25.80;99.90;;;;;;5075749;28;20582;-71
2022/07/23 09:05:22;;;;;;;18.10;14.17;;;25.90;99.90;;;;;;5075023;28;21000;-71
2022/07/23 09:08:19;;;;;;;17.60;14.93;;;25.80;99.90;;;;;;5075259;28;21217;-72
2022/07/23 09:10:52;;;;;;;15.50;13.97;;;25.60;99.90;;;;;;5075648;28;20610;-74
2022/07/23 09:13:35;;;;;;;16.50;12.43;;;25.60;99.90;;;;;;5075274;28;20961;-73
2022/07/23 09:16:38;;;;;;;13.60;12.30;;;25.80;99.90;;;;;;5074955;28;20782;-74
2022/07/23 09:19:07;;;;;;;14.63;13.23;;;26.00;99.90;;;;;;5075108;28;20982;-72
2022/07/23 09:21:35;;;;;;;14.70;12.97;;;25.90;99.90;;;;;;5074875;28;20947;-72
2022/07/23 09:24:10;;;;;;;15.10;12.70;;;26.40;99.90;;;;;;5075245;28;20634;-73
2022/07/23 09:26:47;;;;;;;13.80;12.40;;;26.40;99.90;;;;;;5075343;28;20625;-72
2022/07/23 09:29:27;;;;;;;14.80;13.20;;;26.30;99.90;;;;;;5075403;28;20663;-73
2022/07/23 09:32:02;;;;;;;12.60;11.70;;;26.00;99.90;;;;;;5075136;28;20567;-73
2022/07/23 09:34:32;;;;;;;14.03;12.93;;;26.40;99.90;;;;;;5074896;28;20980;-73
2022/07/23 09:37:19;;;;;;;13.83;12.73;;;26.30;99.90;;;;;;5072878;28;20614;-73
2022/07/23 09:39:48;;;;;;;12.73;11.47;;;26.40;99.90;;;;;;5074505;28;21142;-73
2022/07/23 09:42:18;;;;;;;11.47;10.47;;;26.60;99.90;;;;;;5074539;28;20976;-73
2022/07/23 09:44:49;;;;;;;12.87;11.57;;;26.60;99.90;;;;;;5074696;28;20582;-72
2022/07/23 09:47:17;;;;;;;12.10;11.17;;;26.90;99.90;;;;;;5074568;28;20578;-73
2022/07/23 09:50:06;;;;;;;13.63;12.43;;;26.50;99.90;;;;;;5074503;28;21016;-73
2022/07/23 09:52:42;;;;;;;13.63;12.43;;;26.40;99.90;;;;;;5074096;28;20621;-73
2022/07/23 09:55:09;;;;;;;13.20;12.00;;;26.70;99.90;;;;;;5074160;28;21256;-72
2022/07/23 09:57:36;;;;;;;22.40;11.30;;;26.90;99.90;;;;;;5074444;28;20579;-72
2022/07/23 10:00:06;;;;;;;12.07;11.17;;;27.40;99.90;;;;;;5073911;28;20702;-73
2022/07/23 10:02:33;;;;;;;13.03;11.47;;;27.40;99.90;;;;;;5072338;28;20626;-73
2022/07/23 10:05:02;;;;;;;13.20;12.10;;;27.10;99.90;;;;;;5074015;28;20650;-73
2022/07/23 10:07:33;;;;;;;14.43;13.10;;;27.00;99.90;;;;;;5073767;28;20663;-73
2022/07/23 10:10:00;;;;;;;14.37;13.07;;;27.70;99.90;;;;;;5073732;28;20661;-73
2022/07/23 10:14:54;;;;;;;13.63;12.47;;;27.30;99.90;;;;;;5074224;28;20578;-73
2022/07/23 10:17:20;;;;;;;13.50;12.30;;;26.50;99.90;;;;;;5074124;28;20571;-73
2022/07/23 10:19:47;;;;;;;14.37;13.17;;;26.60;99.90;;;;;;5073911;28;20586;-74
2022/07/23 10:22:21;;;;;;;12.10;11.20;;;26.70;99.90;;;;;;5073577;28;20619;-74
2022/07/23 10:24:50;;;;;;;13.40;12.10;;;27.60;99.90;;;;;;5073899;28;20658;-74
2022/07/23 10:27:43;;;;;;;12.93;11.93;;;28.30;99.90;;;;;;5073784;28;20589;-74
2022/07/23 10:30:32;;;;;;;16.27;14.70;;;27.70;99.90;;;;;;5054211;28;20662;-73
2022/07/23 10:33:37;;;;;;;13.40;12.40;;;27.40;99.90;;;;;;5072793;28;20858;-74
2022/07/23 10:36:20;;;;;;;12.20;11.33;;;27.70;99.90;;;;;;5074271;28;20617;-74
2022/07/23 10:38:55;;;;;;;11.87;10.97;;;28.00;99.90;;;;;;5074385;28;20578;-74
2022/07/23 10:41:40;;;;;;;12.83;11.80;;;28.40;99.90;;;;;;5074361;28;20631;-74
2022/07/23 10:44:11;;;;;;;14.27;13.10;;;28.70;99.90;;;;;;5074102;28;20626;-75
2022/07/23 10:49:40;;;;;;;11.83;10.83;;;29.40;99.90;;;;;;5074052;28;20629;-74
2022/07/23 10:52:15;;;;;;;12.17;11.17;;;29.90;99.90;;;;;;5074134;28;20623;-75
2022/07/23 10:54:42;;;;;;;12.60;11.63;;;29.80;99.90;;;;;;5074141;28;21148;-75
2022/07/23 10:57:11;;;;;;;13.00;11.80;;;29.80;99.90;;;;;;5074202;28;21253;-75
2022/07/23 11:02:30;;;;;;;12.20;11.20;;;28.60;99.90;;;;;;5074406;28;20581;-74
2022/07/23 11:05:11;;;;;;;12.23;11.03;;;29.00;99.90;;;;;;5072947;28;20657;-74
2022/07/23 11:08:03;;;;;;;12.27;11.17;;;29.80;99.90;;;;;;5074796;28;20629;-73
2022/07/23 11:10:34;;;;;;;12.87;11.93;;;30.70;99.90;;;;;;5073975;28;21059;-74
2022/07/23 11:13:22;;;;;;;11.53;10.83;;;30.00;99.90;;;;;;5074527;28;20637;-73
2022/07/23 11:16:01;;;;;;;14.83;11.27;;;30.60;99.90;;;;;;5075009;28;20679;-74
2022/07/23 11:18:39;;;;;;;11.40;10.50;;;30.70;99.90;;;;;;5074267;28;21156;-75
2022/07/23 11:21:26;;;;;;;11.93;11.03;;;30.40;99.90;;;;;;5074116;28;20579;-72
2022/07/23 11:24:13;;;;;;;11.17;10.37;;;30.60;99.90;;;;;;5073110;28;20645;-69
2022/07/23 11:26:48;;;;;;;10.97;10.17;;;29.30;99.90;;;;;;5073098;28;20628;-69
2022/07/23 11:29:31;;;;;;;12.50;11.40;;;29.60;99.90;;;;;;5071439;28;20657;-69
2022/07/23 11:32:03;;;;;;;11.90;10.80;;;30.30;99.90;;;;;;5073125;28;20687;-69
2022/07/23 11:34:35;;;;;;;11.53;10.60;;;31.20;99.90;;;;;;5072841;28;20574;-67
2022/07/23 11:37:07;;;;;;;12.80;11.60;;;31.10;99.90;;;;;;5073030;28;20578;-66
2022/07/23 11:39:34;;;;;;;13.17;12.10;;;30.30;99.90;;;;;;5073220;28;20638;-68
2022/07/23 11:42:06;;;;;;;13.27;11.40;;;30.30;99.90;;;;;;5072607;28;20567;-68
2022/07/23 11:44:35;;;;;;;12.60;11.70;;;30.70;99.90;;;;;;5072892;28;20578;-68
2022/07/23 11:47:13;;;;;;;12.27;11.57;;;31.60;99.90;;;;;;5072809;28;20672;-68
2022/07/23 11:49:56;;;;;;;12.50;11.60;;;31.30;99.90;;;;;;5072457;28;20675;-68
2022/07/23 11:52:23;;;;;;;12.93;12.03;;;32.40;99.90;;;;;;5072788;28;20626;-68
2022/07/23 11:54:55;;;;;;;12.57;11.67;;;31.00;99.90;;;;;;5072428;28;21234;-68
2022/07/23 11:57:30;;;;;;;11.67;10.87;;;30.60;99.90;;;;;;5072771;28;20618;-68
2022/07/23 12:00:11;;;;;;;12.27;11.07;;;30.00;99.90;;;;;;5072480;28;20647;-68
2022/07/23 12:02:48;;;;;;;12.90;11.90;;;29.80;99.90;;;;;;5072718;28;20625;-68
2022/07/23 12:05:18;;;;;;;11.63;10.83;;;29.90;99.90;;;;;;5072188;28;21217;-68
2022/07/23 12:07:49;;;;;;;11.77;10.80;;;30.30;99.90;;;;;;5072558;28;20571;-68
2022/07/23 12:10:26;;;;;;;11.77;10.77;;;30.30;99.90;;;;;;5071073;28;21314;-67
2022/07/23 12:12:58;;;;;;;12.03;11.27;;;30.20;99.90;;;;;;5072535;28;20598;-68
2022/07/23 12:15:33;;;;;;;12.93;12.13;;;31.20;99.90;;;;;;5072409;28;20636;-68
2022/07/23 12:18:01;;;;;;;12.20;11.40;;;31.90;99.90;;;;;;5075051;28;20655;-68
2022/07/23 12:20:41;;;;;;;11.70;11.00;;;31.40;99.90;;;;;;5076374;28;20583;-67
2022/07/23 12:23:10;;;;;;;11.70;11.00;;;30.40;99.90;;;;;;5076218;28;20622;-68
2022/07/23 12:25:39;;;;;;;11.80;11.10;;;29.60;99.90;;;;;;5075837;28;20648;-68
2022/07/23 12:28:12;;;;;;;13.07;12.00;;;29.10;99.90;;;;;;5075812;28;20973;-68
2022/07/23 12:30:39;;;;;;;12.20;11.43;;;29.30;99.90;;;;;;5076507;28;21211;-68
2022/07/23 12:33:07;;;;;;;12.50;11.77;;;30.60;99.90;;;;;;5076160;28;20933;-68
2022/07/23 12:35:45;;;;;;;13.90;12.70;;;31.40;99.90;;;;;;5076066;28;20578;-68
2022/07/23 12:38:19;;;;;;;13.27;12.10;;;32.70;99.90;;;;;;5075931;28;20953;-68
2022/07/23 12:40:54;;;;;;;12.70;11.90;;;32.30;99.90;;;;;;5075896;28;20613;-68
2022/07/23 12:43:26;;;;;;;12.90;12.10;;;32.40;99.90;;;;;;5074345;28;20619;-68
2022/07/23 12:46:02;;;;;;;12.93;12.03;;;32.20;99.90;;;;;;5075641;28;20570;-68
2022/07/23 12:48:34;;;;;;;12.13;11.43;;;33.50;99.90;;;;;;5075940;28;20934;-68